createdAt,value
2023-08-12T00:01:13.234Z,99992.00
2023-08-12T00:03:40.420Z,99992.91
2023-08-12T00:06:07.990Z,99990.34
2023-08-12T00:08:35.178Z,99991.25
2023-08-12T00:11:02.244Z,99985.31
2023-08-12T00:13:29.340Z,99983.63
2023-08-12T00:15:56.669Z,99972.56
2023-08-12T00:18:24.170Z,99959.84
2023-08-12T00:20:52.381Z,99971.09
2023-08-12T00:23:19.631Z,99956.72
2023-08-12T00:25:46.748Z,99956.03
2023-08-12T00:28:14.258Z,99951.09
2023-08-12T00:30:41.784Z,99949.69
2023-08-12T00:33:09.221Z,99954.19
2023-08-12T00:35:36.843Z,99944.06
2023-08-12T00:38:04.118Z,99934.81
2023-08-12T00:40:31.272Z,99945.06
2023-08-12T00:42:58.329Z,99940.66
2023-08-12T00:45:25.909Z,99944.06
2023-08-12T00:47:53.185Z,99941.50
2023-08-12T00:50:21.145Z,99949.25
2023-08-12T00:52:50.224Z,99950.16
2023-08-12T00:55:19.082Z,99949.16
2023-08-12T00:57:46.376Z,99946.56
2023-08-12T01:00:15.210Z,99937.22
2023-08-12T01:02:49.264Z,99936.47
2023-08-12T01:05:17.735Z,99932.31
2023-08-12T01:07:46.328Z,99927.19
2023-08-12T01:10:16.848Z,99927.22
2023-08-12T01:13:07.566Z,99925.50
2023-08-12T01:15:35.749Z,99914.31
2023-08-12T01:18:04.917Z,99919.38
2023-08-12T01:20:32.706Z,99910.78
2023-08-12T01:23:16.501Z,99907.41
2023-08-12T01:25:44.051Z,99904.97
2023-08-12T01:28:11.381Z,99911.69
2023-08-12T01:30:58.383Z,99904.78
2023-08-12T01:33:57.829Z,99905.66
2023-08-12T01:36:28.593Z,99897.84
2023-08-12T01:39:02.463Z,99893.47
2023-08-12T01:41:31.066Z,99893.31
2023-08-12T01:43:58.480Z,99894.91
2023-08-12T01:46:25.588Z,99898.31
2023-08-12T01:48:52.773Z,99900.84
2023-08-12T01:51:19.790Z,99903.44
2023-08-12T01:53:46.890Z,99896.50
2023-08-12T01:56:14.038Z,99895.53
2023-08-12T01:58:41.280Z,99890.34
2023-08-12T02:01:08.318Z,99906.69
2023-08-12T02:03:35.559Z,99893.84
2023-08-12T02:06:02.662Z,99896.41
2023-08-12T02:08:29.809Z,99892.09
2023-08-12T02:10:56.864Z,99892.09
2023-08-12T02:13:23.938Z,99883.50
2023-08-12T02:15:50.999Z,99880.91
2023-08-12T02:18:18.141Z,99879.22
2023-08-12T02:20:47.977Z,99884.34
2023-08-12T02:23:15.357Z,99883.59
2023-08-12T02:25:42.426Z,99882.59
2023-08-12T02:28:09.455Z,99877.44
2023-08-12T02:30:36.513Z,99879.09
2023-08-12T02:33:03.866Z,99867.91
2023-08-12T02:35:30.900Z,99860.31
2023-08-12T02:37:57.938Z,99853.56
2023-08-12T02:40:25.023Z,99845.97
2023-08-12T02:42:52.073Z,99854.78
2023-08-12T02:45:19.499Z,99846.41
2023-08-12T02:47:46.546Z,99850.03
2023-08-12T02:50:13.738Z,99828.59
2023-08-12T02:52:40.742Z,99828.75
2023-08-12T02:55:08.435Z,99833.06
2023-08-12T02:57:35.449Z,99828.88
2023-08-12T03:00:02.485Z,99829.75
2023-08-12T03:02:29.874Z,99825.56
2023-08-12T03:04:57.125Z,99820.44
2023-08-12T03:07:24.668Z,99808.56
2023-08-12T03:09:51.712Z,99810.38
2023-08-12T03:12:18.864Z,99808.00
2023-08-12T03:14:45.969Z,99807.16
2023-08-12T03:17:13.500Z,99801.22
2023-08-12T03:19:41.843Z,99801.31
2023-08-12T03:22:08.956Z,99795.31
2023-08-12T03:24:38.830Z,99791.97
2023-08-12T03:27:05.883Z,99785.38
2023-08-12T03:29:33.251Z,99780.41
2023-08-12T03:32:01.116Z,99772.06
2023-08-12T03:34:33.288Z,99780.84
2023-08-12T03:37:00.327Z,99790.50
2023-08-12T03:39:28.063Z,99798.28
2023-08-12T03:41:56.037Z,99795.88
2023-08-12T03:44:23.075Z,99790.72
2023-08-12T03:46:50.181Z,99792.47
2023-08-12T03:49:18.130Z,99796.78
2023-08-12T03:51:46.853Z,99794.44
2023-08-12T03:54:14.023Z,99781.53
2023-08-12T03:56:41.174Z,99782.50
2023-08-12T03:59:08.711Z,99782.56
2023-08-12T04:01:38.020Z,99778.44
2023-08-12T04:04:05.900Z,99777.44
2023-08-12T04:06:32.965Z,99782.56
2023-08-12T04:09:00.026Z,99784.19
2023-08-12T04:11:27.266Z,99773.88
2023-08-12T04:13:54.253Z,99766.03
2023-08-12T04:16:21.273Z,99764.38
2023-08-12T04:18:49.163Z,99757.56
2023-08-12T04:21:16.194Z,99761.91
2023-08-12T04:23:43.227Z,99756.78
2023-08-12T04:26:10.574Z,99769.59
2023-08-12T04:28:37.670Z,99754.13
2023-08-12T04:31:09.133Z,99749.00
2023-08-12T04:33:38.020Z,99747.31
2023-08-12T04:36:05.579Z,99746.44
2023-08-12T04:38:33.215Z,99745.50
2023-08-12T04:41:02.273Z,99747.06
2023-08-12T04:43:29.335Z,99739.09
2023-08-12T04:45:56.449Z,99753.44
2023-08-12T04:48:23.620Z,99754.22
2023-08-12T04:50:50.706Z,99752.25
2023-08-12T04:53:18.874Z,99752.94
2023-08-12T04:55:47.467Z,99749.28
2023-08-12T04:58:15.311Z,99745.81
2023-08-12T05:00:43.210Z,99736.47
2023-08-12T05:03:10.278Z,99736.47
2023-08-12T05:05:37.342Z,99746.03
2023-08-12T05:08:04.769Z,99749.41
2023-08-12T05:10:32.888Z,99754.59
2023-08-12T05:13:00.216Z,99764.09
2023-08-12T05:15:27.835Z,99755.44
2023-08-12T05:17:55.996Z,99763.28
2023-08-12T05:20:23.841Z,99776.31
2023-08-12T05:22:50.947Z,99783.38
2023-08-12T05:25:18.056Z,99786.09
2023-08-12T05:27:45.080Z,99784.72
2023-08-12T05:30:12.940Z,99785.78
2023-08-12T05:32:39.966Z,99772.22
2023-08-12T05:35:07.453Z,99772.34
2023-08-12T05:37:34.494Z,99754.38
2023-08-12T05:40:01.568Z,99750.13
2023-08-12T05:42:28.821Z,99751.09
2023-08-12T05:44:55.850Z,99752.03
2023-08-12T05:47:22.830Z,99746.16
2023-08-12T05:49:50.146Z,99750.69
2023-08-12T05:52:17.410Z,99754.53
2023-08-12T05:54:44.527Z,99765.28
2023-08-12T05:57:11.567Z,99759.66
2023-08-12T05:59:38.607Z,99754.69
2023-08-12T06:02:05.652Z,99733.50
2023-08-12T06:04:32.688Z,99734.56
2023-08-12T06:06:59.724Z,99725.31
2023-08-12T06:09:26.817Z,99721.91
2023-08-12T06:11:53.850Z,99730.38
2023-08-12T06:14:20.851Z,99738.81
2023-08-12T06:16:47.879Z,99738.56
2023-08-12T06:19:14.901Z,99734.69
2023-08-12T06:21:41.900Z,99725.69
2023-08-12T06:24:09.070Z,99713.97
2023-08-12T06:26:36.109Z,99709.34
2023-08-12T06:29:05.965Z,99708.09
2023-08-12T06:31:33.584Z,99692.28
2023-08-12T06:34:00.617Z,99686.13
2023-08-12T06:36:27.886Z,99669.66
2023-08-12T06:38:54.902Z,99669.31
2023-08-12T06:41:21.936Z,99663.88
2023-08-12T06:43:49.025Z,99687.47
2023-08-12T06:46:16.233Z,99707.69
2023-08-12T06:48:43.321Z,99706.16
2023-08-12T06:51:12.933Z,99709.94
2023-08-12T06:53:40.905Z,99712.06
2023-08-12T06:56:07.973Z,99713.53
2023-08-12T06:58:35.003Z,99709.84
2023-08-12T07:01:02.116Z,99707.06
2023-08-12T07:03:29.320Z,99712.06
2023-08-12T07:05:56.476Z,99711.88
2023-08-12T07:08:23.587Z,99718.63
2023-08-12T07:10:51.014Z,99717.66
2023-08-12T07:13:18.045Z,99712.16
2023-08-12T07:15:45.290Z,99720.13
2023-08-12T07:18:12.413Z,99719.72
2023-08-12T07:20:39.470Z,99729.56
2023-08-12T07:23:06.447Z,99722.13
2023-08-12T07:25:33.586Z,99723.34
2023-08-12T07:28:00.824Z,99716.75
2023-08-12T07:30:27.881Z,99713.09
2023-08-12T07:32:54.979Z,99703.66
2023-08-12T07:35:22.057Z,99693.22
2023-08-12T07:37:49.091Z,99698.31
2023-08-12T07:40:16.472Z,99690.38
2023-08-12T07:42:43.466Z,99681.63
2023-08-12T07:45:11.019Z,99690.19
2023-08-12T07:47:40.291Z,99686.69
2023-08-12T07:50:08.291Z,99685.50
2023-08-12T07:52:35.296Z,99685.38
2023-08-12T07:55:03.468Z,99680.84
2023-08-12T07:57:30.461Z,99682.44
2023-08-12T07:59:57.546Z,99684.75
2023-08-12T08:02:24.624Z,99684.56
2023-08-12T08:04:51.790Z,99689.84
2023-08-12T08:07:19.088Z,99684.66
2023-08-12T08:09:46.233Z,99691.75
2023-08-12T08:12:13.910Z,99702.09
2023-08-12T08:14:41.264Z,99688.25
2023-08-12T08:17:08.802Z,99686.56
2023-08-12T08:19:36.352Z,99682.94
2023-08-12T08:22:04.146Z,99681.81
2023-08-12T08:24:31.223Z,99670.38
2023-08-12T08:26:58.327Z,99683.13
2023-08-12T08:29:25.789Z,99695.66
2023-08-12T08:31:52.928Z,99697.97
2023-08-12T08:34:20.437Z,99700.88
2023-08-12T08:36:47.446Z,99711.75
2023-08-12T08:39:14.587Z,99705.66
2023-08-12T08:41:42.205Z,99703.72
2023-08-12T08:44:10.550Z,99713.31
2023-08-12T08:46:38.423Z,99721.38
2023-08-12T08:49:07.100Z,99713.88
2023-08-12T08:51:34.231Z,99715.84
2023-08-12T08:54:06.350Z,99722.09
2023-08-12T08:56:33.968Z,99719.75
2023-08-12T08:59:02.797Z,99722.69
2023-08-12T09:01:31.676Z,99716.72
2023-08-12T09:03:59.895Z,99716.72
2023-08-12T09:06:29.396Z,99713.09
2023-08-12T09:08:57.002Z,99720.94
2023-08-12T09:11:24.984Z,99720.81
2023-08-12T09:13:51.993Z,99715.28
2023-08-12T09:16:19.977Z,99708.84
2023-08-12T09:18:47.042Z,99702.97
2023-08-12T09:21:14.244Z,99705.44
2023-08-12T09:23:43.280Z,99697.47
2023-08-12T09:26:21.789Z,99710.25
2023-08-12T09:28:49.889Z,99706.63
2023-08-12T09:31:29.789Z,99710.97
2023-08-12T09:34:05.522Z,99704.22
2023-08-12T09:36:32.712Z,99702.94
2023-08-12T09:38:59.832Z,99710.63
2023-08-12T09:41:30.222Z,99712.41
2023-08-12T09:44:00.527Z,99716.19
2023-08-12T09:46:28.793Z,99702.56
2023-08-12T09:48:55.831Z,99709.91
2023-08-12T09:51:23.357Z,99712.63
2023-08-12T09:53:51.268Z,99703.19
2023-08-12T09:56:24.091Z,99705.59
2023-08-12T09:58:53.930Z,99702.06
2023-08-12T10:01:22.855Z,99692.88
2023-08-12T10:03:54.812Z,99698.63
2023-08-12T10:06:22.288Z,99697.28
2023-08-12T10:08:51.278Z,99691.88
2023-08-12T10:11:18.630Z,99689.78
2023-08-12T10:13:46.475Z,99688.41
2023-08-12T10:16:14.910Z,99696.50
2023-08-12T10:18:43.233Z,99685.81
2023-08-12T10:21:14.907Z,99704.56
2023-08-12T10:23:46.614Z,99711.31
2023-08-12T10:26:18.656Z,99695.97
2023-08-12T10:28:45.689Z,99697.72
2023-08-12T10:31:13.404Z,99707.97
2023-08-12T10:33:41.054Z,99712.13
2023-08-12T10:36:09.557Z,99709.19
2023-08-12T10:38:37.362Z,99715.50
2023-08-12T10:41:22.119Z,99707.59
2023-08-12T10:43:59.704Z,99712.53
2023-08-12T10:46:38.165Z,99703.34
2023-08-12T10:49:11.594Z,99708.69
2023-08-12T10:51:55.845Z,99698.16
2023-08-12T10:54:31.314Z,99689.25
2023-08-12T10:57:04.407Z,99686.09
2023-08-12T10:59:47.023Z,99685.56
2023-08-12T11:02:34.097Z,99683.72
2023-08-12T11:05:09.733Z,99678.13
2023-08-12T11:07:59.644Z,99675.53
2023-08-12T11:10:33.787Z,99673.22
2023-08-12T11:13:04.135Z,99667.88
2023-08-12T11:15:43.036Z,99660.56
2023-08-12T11:18:14.041Z,99664.72
2023-08-12T11:20:41.507Z,99661.13
2023-08-12T11:23:10.665Z,99663.31
2023-08-12T11:25:51.159Z,99668.19
2023-08-12T11:28:20.931Z,99670.34
2023-08-12T11:30:48.172Z,99659.75
2023-08-12T11:33:22.113Z,99654.72
2023-08-12T11:35:49.394Z,99650.72
2023-08-12T11:38:16.684Z,99652.16
2023-08-12T11:40:44.480Z,99655.00
2023-08-12T11:43:11.510Z,99648.97
2023-08-12T11:45:43.039Z,99648.06
2023-08-12T11:48:11.530Z,99645.25
2023-08-12T11:50:39.940Z,99659.22
2023-08-12T11:53:07.484Z,99657.44
2023-08-12T11:55:34.861Z,99659.38
2023-08-12T11:58:02.022Z,99659.28
2023-08-12T12:00:29.485Z,99653.66
2023-08-12T12:02:57.522Z,99652.19
2023-08-12T12:05:35.788Z,99653.97
2023-08-12T12:08:05.253Z,99658.50
2023-08-12T12:10:35.680Z,99664.00
2023-08-12T12:13:05.624Z,99678.03
2023-08-12T12:15:42.225Z,99703.78
2023-08-12T12:18:14.180Z,99714.84
2023-08-12T12:20:58.690Z,99711.28
2023-08-12T12:23:32.604Z,99716.75
2023-08-12T12:26:04.694Z,99714.25
2023-08-12T12:28:32.167Z,99725.88
2023-08-12T12:30:59.356Z,99721.16
2023-08-12T12:33:26.474Z,99723.56
2023-08-12T12:35:58.773Z,99722.63
2023-08-12T12:38:28.247Z,99729.66
2023-08-12T12:40:55.419Z,99730.00
2023-08-12T12:43:22.455Z,99732.44
2023-08-12T12:45:49.546Z,99742.38
2023-08-12T12:48:16.642Z,99741.75
2023-08-12T12:50:43.647Z,99743.31
2023-08-12T12:53:10.629Z,99754.47
2023-08-12T12:55:37.733Z,99758.84
2023-08-12T12:58:04.993Z,99758.84
2023-08-12T13:00:31.999Z,99761.09
2023-08-12T13:02:59.604Z,99751.53
2023-08-12T13:05:26.686Z,99742.22
2023-08-12T13:07:53.730Z,99745.19
2023-08-12T13:10:20.983Z,99761.84
2023-08-12T13:12:48.011Z,99760.19
2023-08-12T13:15:15.211Z,99750.81
2023-08-12T13:17:42.309Z,99754.38
2023-08-12T13:20:10.756Z,99745.50
2023-08-12T13:22:37.813Z,99758.53
2023-08-12T13:25:05.270Z,99761.16
2023-08-12T13:27:32.723Z,99758.66
2023-08-12T13:29:59.709Z,99761.16
2023-08-12T13:32:26.804Z,99759.47
2023-08-12T13:34:53.787Z,99767.09
2023-08-12T13:37:20.791Z,99761.16
2023-08-12T13:39:47.786Z,99764.94
2023-08-12T13:42:15.092Z,99760.97
2023-08-12T13:44:42.423Z,99768.06
2023-08-12T13:47:09.400Z,99765.81
2023-08-12T13:49:36.438Z,99771.97
2023-08-12T13:52:03.847Z,99764.88
2023-08-12T13:54:30.954Z,99763.88
2023-08-12T13:56:57.990Z,99761.19
2023-08-12T13:59:24.955Z,99772.44
2023-08-12T14:01:51.965Z,99766.50
2023-08-12T14:04:19.021Z,99763.88
2023-08-12T14:06:47.277Z,99767.47
2023-08-12T14:09:15.134Z,99766.28
2023-08-12T14:11:42.177Z,99763.41
2023-08-12T14:14:09.307Z,99765.81
2023-08-12T14:16:36.973Z,99762.94
2023-08-12T14:19:04.525Z,99765.53
2023-08-12T14:21:31.546Z,99760.31
2023-08-12T14:23:58.597Z,99768.16
2023-08-12T14:26:25.580Z,99766.25
2023-08-12T14:28:52.582Z,99774.06
2023-08-12T14:31:19.702Z,99766.63
2023-08-12T14:33:46.747Z,99766.16
2023-08-12T14:36:13.716Z,99760.19
2023-08-12T14:38:40.774Z,99750.00
2023-08-12T14:41:07.906Z,99755.47
2023-08-12T14:43:34.929Z,99758.44
2023-08-12T14:46:02.226Z,99757.28
2023-08-12T14:48:29.585Z,99763.69
2023-08-12T14:50:56.781Z,99743.25
2023-08-12T14:53:25.288Z,99740.97
2023-08-12T14:55:52.621Z,99741.81
2023-08-12T14:58:19.696Z,99741.81
2023-08-12T15:00:49.947Z,99748.00
2023-08-12T15:03:17.186Z,99741.34
2023-08-12T15:05:44.393Z,99736.34
2023-08-12T15:08:11.363Z,99734.09
2023-08-12T15:10:38.852Z,99749.91
2023-08-12T15:13:06.550Z,99744.31
2023-08-12T15:15:33.553Z,99749.53
2023-08-12T15:18:01.284Z,99750.34
2023-08-12T15:20:30.221Z,99741.59
2023-08-12T15:22:58.454Z,99731.84
2023-08-12T15:25:26.289Z,99735.19
2023-08-12T15:27:53.276Z,99739.47
2023-08-12T15:30:20.522Z,99740.63
2023-08-12T15:32:47.550Z,99743.47
2023-08-12T15:35:14.585Z,99742.22
2023-08-12T15:37:41.599Z,99735.28
2023-08-12T15:40:09.939Z,99734.94
2023-08-12T15:42:36.936Z,99750.13
2023-08-12T15:45:04.721Z,99744.66
2023-08-12T15:47:33.682Z,99746.56
2023-08-12T15:50:00.694Z,99745.88
2023-08-12T15:52:27.915Z,99735.88
2023-08-12T15:54:54.898Z,99742.16
2023-08-12T15:57:21.868Z,99747.50
2023-08-12T15:59:48.857Z,99740.88
2023-08-12T16:02:16.088Z,99751.41
2023-08-12T16:04:43.594Z,99751.31
2023-08-12T16:07:10.694Z,99751.19
2023-08-12T16:09:37.726Z,99754.50
2023-08-12T16:12:05.289Z,99756.53
2023-08-12T16:14:32.315Z,99751.03
2023-08-12T16:16:59.366Z,99745.78
2023-08-12T16:19:27.942Z,99749.09
2023-08-12T16:21:56.493Z,99758.53
2023-08-12T16:24:23.450Z,99756.50
2023-08-12T16:26:50.450Z,99752.78
2023-08-12T16:29:17.421Z,99743.03
2023-08-12T16:31:44.464Z,99748.81
2023-08-12T16:34:11.560Z,99735.72
2023-08-12T16:36:38.531Z,99739.59
2023-08-12T16:39:07.465Z,99732.34
2023-08-12T16:41:34.551Z,99737.16
2023-08-12T16:44:01.595Z,99740.22
2023-08-12T16:46:28.974Z,99741.72
2023-08-12T16:48:56.242Z,99751.75
2023-08-12T16:51:23.310Z,99749.53
2023-08-12T16:53:50.320Z,99754.34
2023-08-12T16:56:17.388Z,99750.59
2023-08-12T16:58:44.933Z,99751.13
2023-08-12T17:01:12.166Z,99755.22
2023-08-12T17:03:39.334Z,99747.34
2023-08-12T17:06:06.366Z,99755.03
2023-08-12T17:08:33.360Z,99748.88
2023-08-12T17:11:09.630Z,99744.28
2023-08-12T17:13:36.711Z,99755.31
2023-08-12T17:16:04.164Z,99752.41
2023-08-12T17:18:31.432Z,99762.50
2023-08-12T17:20:58.417Z,99764.88
2023-08-12T17:23:25.540Z,99758.56
2023-08-12T17:25:52.565Z,99763.56
2023-08-12T17:28:19.570Z,99762.38
2023-08-12T17:30:46.670Z,99760.50
2023-08-12T17:33:13.666Z,99755.06
2023-08-12T17:35:41.200Z,99754.81
2023-08-12T17:38:08.279Z,99761.41
2023-08-12T17:40:35.316Z,99761.03
2023-08-12T17:43:02.967Z,99763.19
2023-08-12T17:45:30.039Z,99765.34
2023-08-12T17:48:04.237Z,99770.75
2023-08-12T17:50:31.758Z,99776.31
2023-08-12T17:52:59.240Z,99775.75
2023-08-12T17:55:26.292Z,99769.09
2023-08-12T17:57:53.429Z,99770.84
2023-08-12T18:00:22.788Z,99778.56
2023-08-12T18:02:50.369Z,99770.84
2023-08-12T18:05:17.532Z,99777.81
2023-08-12T18:07:44.668Z,99775.41
2023-08-12T18:10:12.564Z,99778.28
2023-08-12T18:12:40.533Z,99788.94
2023-08-12T18:15:08.175Z,99790.97
2023-08-12T18:17:35.470Z,99788.81
2023-08-12T18:20:05.927Z,99787.50
2023-08-12T18:22:33.776Z,99799.19
2023-08-12T18:25:01.543Z,99808.25
2023-08-12T18:27:29.806Z,99799.28
2023-08-12T18:29:57.849Z,99804.81
2023-08-12T18:32:27.688Z,99810.53
2023-08-12T18:34:56.624Z,99810.16
2023-08-12T18:37:24.260Z,99803.81
2023-08-12T18:39:51.400Z,99815.44
2023-08-12T18:42:18.558Z,99817.72
2023-08-12T18:44:45.642Z,99826.66
2023-08-12T18:47:15.133Z,99822.94
2023-08-12T18:49:44.174Z,99829.56
2023-08-12T18:52:11.975Z,99832.56
2023-08-12T18:54:39.155Z,99821.81
2023-08-12T18:57:06.294Z,99827.38
2023-08-12T18:59:33.357Z,99834.69
2023-08-12T19:02:00.531Z,99833.38
2023-08-12T19:04:27.789Z,99839.78
2023-08-12T19:06:54.972Z,99835.09
2023-08-12T19:09:22.348Z,99837.25
2023-08-12T19:11:49.626Z,99845.44
2023-08-12T19:14:16.689Z,99836.41
2023-08-12T19:16:43.673Z,99847.13
2023-08-12T19:19:11.713Z,99844.06
2023-08-12T19:21:39.398Z,99854.81
2023-08-12T19:24:06.913Z,99853.47
2023-08-12T19:26:35.023Z,99858.19
2023-08-12T19:29:02.752Z,99855.09
2023-08-12T19:31:29.966Z,99859.69
2023-08-12T19:33:57.716Z,99857.56
2023-08-12T19:36:25.793Z,99858.00
2023-08-12T19:38:53.392Z,99855.78
2023-08-12T19:41:20.555Z,99859.69
2023-08-12T19:43:47.568Z,99858.28
2023-08-12T19:46:14.611Z,99861.09
2023-08-12T19:48:53.554Z,99864.97
2023-08-12T19:51:20.574Z,99867.00
2023-08-12T19:53:48.431Z,99873.28
2023-08-12T19:56:15.811Z,99871.00
2023-08-12T19:58:43.042Z,99872.16
2023-08-12T20:01:10.307Z,99869.00
2023-08-12T20:03:37.411Z,99863.22
2023-08-12T20:06:05.392Z,99869.44
2023-08-12T20:08:32.452Z,99870.56
2023-08-12T20:10:59.441Z,99870.72
2023-08-12T20:13:26.850Z,99877.81
2023-08-12T20:15:58.798Z,99871.19
2023-08-12T20:18:27.611Z,99877.38
2023-08-12T20:20:55.228Z,99881.00
2023-08-12T20:23:22.467Z,99879.41
2023-08-12T20:25:51.093Z,99884.72
2023-08-12T20:28:18.135Z,99883.09
2023-08-12T20:30:45.482Z,99882.41
2023-08-12T20:33:12.599Z,99879.97
2023-08-12T20:35:39.772Z,99885.22
2023-08-12T20:38:06.836Z,99884.47
2023-08-12T20:40:34.361Z,99885.47
2023-08-12T20:43:01.463Z,99892.41
2023-08-12T20:45:28.852Z,99888.28
2023-08-12T20:47:55.965Z,99889.34
2023-08-12T20:50:23.090Z,99894.66
2023-08-12T20:52:50.124Z,99902.56
2023-08-12T20:55:17.283Z,99901.88
2023-08-12T20:57:44.349Z,99905.50
2023-08-12T21:00:13.209Z,99902.13
2023-08-12T21:02:47.379Z,99910.06
2023-08-12T21:05:14.498Z,99906.00
2023-08-12T21:07:42.330Z,99901.03
2023-08-12T21:10:11.096Z,99908.13
2023-08-12T21:12:39.086Z,99908.38
2023-08-12T21:15:07.126Z,99910.19
2023-08-12T21:17:34.449Z,99906.97
2023-08-12T21:20:01.514Z,99906.38
2023-08-12T21:22:28.603Z,99905.78
2023-08-12T21:24:55.659Z,99908.53
2023-08-12T21:27:22.919Z,99919.84
2023-08-12T21:29:51.909Z,99924.22
2023-08-12T21:32:18.943Z,99914.94
2023-08-12T21:34:46.027Z,99912.50
2023-08-12T21:37:14.444Z,99921.13
2023-08-12T21:39:41.606Z,99925.44
2023-08-12T21:42:09.233Z,99914.31
2023-08-12T21:44:36.711Z,99920.50
2023-08-12T21:47:03.727Z,99925.72
2023-08-12T21:49:30.782Z,99925.88
2023-08-12T21:51:57.745Z,99926.72
2023-08-12T21:54:24.780Z,99925.88
2023-08-12T21:56:51.889Z,99935.34
2023-08-12T21:59:20.155Z,99924.16
2023-08-12T22:01:48.357Z,99919.06
2023-08-12T22:04:15.548Z,99922.47
2023-08-12T22:06:42.538Z,99915.69
2023-08-12T22:09:09.853Z,99919.16
2023-08-12T22:11:36.910Z,99917.47
2023-08-12T22:14:04.113Z,99917.56
2023-08-12T22:16:31.940Z,99913.28
2023-08-12T22:18:59.018Z,99925.66
2023-08-12T22:21:26.065Z,99931.13
2023-08-12T22:23:53.464Z,99925.50
2023-08-12T22:26:20.597Z,99916.38
2023-08-12T22:28:48.226Z,99927.56
2023-08-12T22:31:15.346Z,99922.47
2023-08-12T22:33:42.745Z,99922.53
2023-08-12T22:36:09.911Z,99920.03
2023-08-12T22:38:37.652Z,99917.47
2023-08-12T22:41:04.741Z,99909.00
2023-08-12T22:43:31.811Z,99908.22
2023-08-12T22:45:58.912Z,99912.59
2023-08-12T22:48:26.027Z,99914.38
2023-08-12T22:50:53.939Z,99919.53
2023-08-12T22:53:21.054Z,99918.69
2023-08-12T22:55:48.436Z,99919.59
2023-08-12T22:58:16.158Z,99928.13
2023-08-12T23:00:43.313Z,99920.47
2023-08-12T23:03:10.413Z,99915.28
2023-08-12T23:05:37.537Z,99922.88
2023-08-12T23:08:05.011Z,99920.31
2023-08-12T23:10:33.064Z,99930.56
2023-08-12T23:13:00.087Z,99930.41
2023-08-12T23:15:27.099Z,99929.47
2023-08-12T23:17:54.180Z,99933.66
2023-08-12T23:20:21.224Z,99942.91
2023-08-12T23:22:48.300Z,99939.41
2023-08-12T23:25:16.394Z,99938.44
2023-08-12T23:27:43.517Z,99942.63
2023-08-12T23:30:15.138Z,99950.34
2023-08-12T23:32:46.125Z,99946.88
2023-08-12T23:35:14.449Z,99939.06
2023-08-12T23:37:41.841Z,99943.28
2023-08-12T23:40:09.764Z,99939.81
2023-08-12T23:42:36.791Z,99941.56
2023-08-12T23:45:05.068Z,99936.41
2023-08-12T23:47:32.147Z,99936.41
2023-08-12T23:49:59.185Z,99933.81
2023-08-12T23:52:26.518Z,99933.81
2023-08-12T23:54:53.845Z,99944.13
2023-08-12T23:57:20.852Z,99939.81
2023-08-12T23:59:48.167Z,99936.47
